Time;durP1;ratioP1;P1;durP2;ratioP2;P2;SDS_P1;SDS_P2;PMS_P1;PMS_P2;Temp;Humidity;BMP_temperature;BMP_pressure;BME280_temperature;BME280_humidity;BME280_pressure;Samples;Min_cycle;Max_cycle;Signal;HPM_P1;HPM_P2
2021/06/15 00:00:13;;;;;;;3.88;3.00;;;11.60;99.90;;;;;;5051343;28;20028;-89
2021/06/15 00:02:39;;;;;;;8.98;2.72;;;11.50;99.90;;;;;;5029380;28;20901;-91
2021/06/15 00:05:05;;;;;;;5.63;3.25;;;11.50;99.90;;;;;;5029600;28;20068;-89
2021/06/15 00:07:31;;;;;;;4.57;2.95;;;11.40;99.90;;;;;;5049524;28;20029;-89
2021/06/15 00:09:57;;;;;;;6.05;2.97;;;11.40;99.90;;;;;;5025890;28;20483;-89
2021/06/15 00:12:22;;;;;;;5.88;2.80;;;11.40;99.90;;;;;;5037994;28;20352;-90
2021/06/15 00:14:48;;;;;;;4.97;3.22;;;11.40;99.90;;;;;;5029876;28;20471;-91
2021/06/15 00:17:14;;;;;;;4.07;3.00;;;11.30;99.90;;;;;;5052393;28;20043;-89
2021/06/15 00:19:39;;;;;;;4.88;3.05;;;11.30;99.90;;;;;;5025362;28;20039;-91
2021/06/15 00:22:05;;;;;;;3.50;2.80;;;11.30;99.90;;;;;;5043026;28;20094;-90
2021/06/15 00:24:31;;;;;;;7.43;4.15;;;11.30;99.90;;;;;;5055348;28;20036;-88
2021/06/15 00:26:56;;;;;;;5.57;3.65;;;11.20;99.90;;;;;;5029658;28;20025;-91
2021/06/15 00:29:22;;;;;;;5.00;3.60;;;11.20;99.90;;;;;;5051609;28;20034;-90
2021/06/15 00:31:49;;;;;;;3.92;3.33;;;11.20;99.90;;;;;;5036609;28;20021;-89
2021/06/15 00:34:15;;;;;;;4.25;2.80;;;11.20;99.90;;;;;;5053189;28;20051;-90
2021/06/15 00:36:40;;;;;;;7.72;3.20;;;11.30;99.90;;;;;;5027412;28;20053;-89
2021/06/15 00:39:06;;;;;;;5.78;3.70;;;11.20;99.90;;;;;;5058540;28;20024;-90
2021/06/15 00:41:32;;;;;;;5.25;3.97;;;11.10;99.90;;;;;;5050783;28;20050;-88
2021/06/15 00:43:57;;;;;;;6.32;3.90;;;11.00;99.90;;;;;;5056910;28;20100;-90
2021/06/15 00:46:24;;;;;;;5.03;4.05;;;10.90;99.90;;;;;;5040639;28;20025;-90
2021/06/15 00:48:49;;;;;;;4.85;3.60;;;10.80;99.90;;;;;;5027122;28;20069;-92
2021/06/15 00:51:15;;;;;;;4.70;3.78;;;10.70;99.90;;;;;;5054532;28;20493;-91
2021/06/15 00:53:42;;;;;;;8.20;3.45;;;10.70;99.90;;;;;;5036560;28;20025;-89
2021/06/15 00:56:08;;;;;;;5.43;3.22;;;10.70;99.90;;;;;;5046921;28;20043;-91
2021/06/15 00:58:34;;;;;;;8.20;3.50;;;10.70;99.90;;;;;;5033583;28;20041;-89
2021/06/15 01:01:00;;;;;;;6.15;3.90;;;10.60;99.90;;;;;;5030480;28;20052;-89
2021/06/15 01:03:27;;;;;;;6.47;4.22;;;10.60;99.90;;;;;;5054788;28;20066;-90
2021/06/15 01:05:53;;;;;;;7.78;3.97;;;10.70;99.90;;;;;;5036433;28;20489;-90
2021/06/15 01:08:31;;;;;;;7.47;4.05;;;10.70;99.90;;;;;;5051228;28;20037;-89
2021/06/15 01:11:18;;;;;;;6.93;3.80;;;10.60;99.90;;;;;;5047902;28;20651;-89
2021/06/15 01:13:56;;;;;;;8.38;3.58;;;10.60;99.90;;;;;;5024341;28;20395;-89
2021/06/15 01:16:33;;;;;;;8.85;3.78;;;10.50;99.90;;;;;;5038449;28;20115;-90
2021/06/15 01:19:28;;;;;;;5.88;4.05;;;10.50;99.90;;;;;;5051639;28;20474;-89
2021/06/15 01:22:03;;;;;;;5.53;3.95;;;10.40;99.90;;;;;;5038491;28;20029;-91
2021/06/15 01:24:35;;;;;;;5.88;3.70;;;10.40;99.90;;;;;;5054145;28;20033;-89
2021/06/15 01:27:32;;;;;;;11.05;4.28;;;10.40;99.90;;;;;;5029803;28;21727;-90
2021/06/15 01:30:03;;;;;;;8.52;4.40;;;10.40;99.90;;;;;;5020355;28;20041;-89
2021/06/15 01:32:33;;;;;;;4.40;3.28;;;10.30;99.90;;;;;;5050755;28;20104;-89
2021/06/15 01:35:00;;;;;;;5.38;3.50;;;10.30;99.90;;;;;;5040569;28;20040;-88
2021/06/15 01:37:32;;;;;;;6.57;4.05;;;10.20;99.90;;;;;;5026450;28;20131;-91
2021/06/15 01:40:12;;;;;;;5.10;3.38;;;10.20;99.90;;;;;;5035242;28;20039;-90
2021/06/15 01:42:43;;;;;;;5.22;3.45;;;10.20;99.90;;;;;;5052519;28;20021;-89
2021/06/15 01:45:21;;;;;;;15.00;4.40;;;10.20;99.90;;;;;;5053284;28;20402;-90
2021/06/15 01:48:15;;;;;;;5.78;3.75;;;10.20;99.90;;;;;;5033051;28;20111;-91
2021/06/15 01:50:43;;;;;;;7.40;4.00;;;10.20;99.90;;;;;;5047227;28;20037;-91
2021/06/15 01:53:13;;;;;;;8.75;4.40;;;10.10;99.90;;;;;;5046140;28;20420;-89
2021/06/15 01:55:45;;;;;;;5.75;4.03;;;10.10;99.90;;;;;;5037683;28;20017;-87
2021/06/15 01:58:11;;;;;;;8.02;4.00;;;10.00;99.90;;;;;;5034628;28;20039;-88
2021/06/15 02:00:37;;;;;;;5.70;3.60;;;10.00;99.90;;;;;;5051627;28;20029;-91
2021/06/15 02:03:05;;;;;;;7.38;4.05;;;10.00;99.90;;;;;;5042705;28;20160;-92
2021/06/15 02:05:52;;;;;;;7.05;3.47;;;10.00;99.90;;;;;;5049838;28;20025;-90
2021/06/15 02:08:26;;;;;;;6.43;4.05;;;10.00;99.90;;;;;;5027160;28;20099;-90
2021/06/15 02:10:54;;;;;;;7.07;3.85;;;9.90;99.90;;;;;;5030152;28;20044;-90
2021/06/15 02:13:20;;;;;;;9.52;4.30;;;9.90;99.90;;;;;;5036479;28;20110;-91
2021/06/15 02:15:48;;;;;;;7.65;4.35;;;9.90;99.90;;;;;;5047615;28;20458;-89
2021/06/15 02:18:19;;;;;;;7.97;4.65;;;9.90;99.90;;;;;;5034011;28;20509;-88
2021/06/15 02:20:46;;;;;;;7.45;4.25;;;9.90;99.90;;;;;;5047825;28;20080;-89
2021/06/15 02:23:17;;;;;;;6.03;4.15;;;9.90;99.90;;;;;;5033308;28;20025;-89
2021/06/15 02:25:44;;;;;;;7.68;4.35;;;10.00;99.90;;;;;;5049143;28;20029;-90
2021/06/15 02:28:11;;;;;;;6.53;4.25;;;9.90;99.90;;;;;;5032325;28;20053;-89
2021/06/15 02:30:37;;;;;;;7.20;4.13;;;10.00;99.90;;;;;;5018683;28;20438;-91
2021/06/15 02:33:11;;;;;;;6.00;3.53;;;9.90;99.90;;;;;;5035825;28;20041;-90
2021/06/15 02:35:43;;;;;;;8.70;4.20;;;9.90;99.90;;;;;;5040698;28;20481;-90
2021/06/15 02:38:15;;;;;;;7.60;4.45;;;9.90;99.90;;;;;;5052855;28;20045;-90
2021/06/15 02:40:41;;;;;;;8.82;4.57;;;9.90;99.90;;;;;;5047505;28;20108;-89
2021/06/15 02:43:10;;;;;;;6.40;4.53;;;10.00;99.90;;;;;;5050722;28;20116;-88
2021/06/15 02:45:37;;;;;;;11.32;4.90;;;10.00;99.90;;;;;;5051332;28;20048;-90
2021/06/15 02:48:06;;;;;;;6.38;4.75;;;10.00;99.90;;;;;;5020909;28;20052;-90
2021/06/15 02:50:34;;;;;;;8.13;4.53;;;10.00;99.90;;;;;;5045253;28;20033;-90
2021/06/15 02:53:03;;;;;;;8.07;4.50;;;10.00;99.90;;;;;;5044506;28;20471;-88
2021/06/15 02:55:37;;;;;;;7.80;4.65;;;10.00;99.90;;;;;;5037296;28;20036;-88
2021/06/15 02:58:04;;;;;;;7.72;4.13;;;10.00;99.90;;;;;;5050507;28;20065;-91
2021/06/15 03:00:32;;;;;;;8.43;4.57;;;10.10;99.90;;;;;;5046737;28;20088;-89
2021/06/15 03:02:58;;;;;;;7.43;4.93;;;10.10;99.90;;;;;;5033528;28;20033;-89
2021/06/15 03:05:24;;;;;;;6.72;4.45;;;10.20;99.90;;;;;;5046608;28;20075;-88
2021/06/15 03:07:51;;;;;;;5.32;3.85;;;10.20;99.90;;;;;;5018532;28;20498;-91
2021/06/15 03:10:19;;;;;;;8.13;4.70;;;10.20;99.90;;;;;;5052546;28;20036;-91
2021/06/15 03:12:58;;;;;;;8.02;4.75;;;10.30;99.90;;;;;;5041806;28;20033;-89
2021/06/15 03:15:49;;;;;;;8.77;4.50;;;10.30;99.90;;;;;;5056767;28;20065;-87
2021/06/15 03:18:51;;;;;;;8.70;4.97;;;10.40;99.90;;;;;;5048167;28;20037;-90
2021/06/15 03:21:24;;;;;;;10.07;4.60;;;10.60;99.90;;;;;;5046877;28;20030;-90
2021/06/15 03:24:01;;;;;;;12.20;5.22;;;11.40;99.90;;;;;;5045218;28;20028;-90
2021/06/15 03:26:28;;;;;;;8.55;4.32;;;12.00;99.90;;;;;;5052141;28;20029;-92
2021/06/15 03:28:59;;;;;;;13.05;5.07;;;12.20;99.90;;;;;;5031228;28;20583;-90
2021/06/15 03:31:31;;;;;;;6.78;4.53;;;12.40;99.90;;;;;;5030383;28;20078;-90
2021/06/15 03:33:59;;;;;;;9.48;4.80;;;12.30;99.90;;;;;;5051995;28;20029;-91
2021/06/15 03:36:26;;;;;;;7.07;4.20;;;12.30;99.90;;;;;;5045288;28;20028;-92
2021/06/15 03:38:55;;;;;;;12.93;5.40;;;12.40;99.90;;;;;;5037972;28;20041;-92
2021/06/15 03:41:22;;;;;;;8.63;4.93;;;12.10;99.90;;;;;;5050999;28;20064;-88
2021/06/15 03:43:51;;;;;;;14.45;4.93;;;12.10;99.90;;;;;;5052998;28;20074;-91
2021/06/15 03:46:20;;;;;;;9.15;4.97;;;12.40;99.90;;;;;;5037225;28;20036;-91
2021/06/15 03:48:48;;;;;;;9.15;4.80;;;12.50;99.90;;;;;;5043749;28;20021;-88
2021/06/15 03:51:28;;;;;;;9.50;5.00;;;12.50;99.90;;;;;;5029003;28;20065;-90
2021/06/15 03:54:06;;;;;;;11.57;5.05;;;12.40;99.90;;;;;;5055305;28;20037;-90
2021/06/15 03:56:36;;;;;;;7.72;4.93;;;12.50;99.90;;;;;;5054703;28;20115;-89
2021/06/15 03:59:04;;;;;;;7.38;4.97;;;13.40;99.90;;;;;;5032813;28;20474;-90
2021/06/15 04:01:33;;;;;;;11.52;5.13;;;14.40;99.90;;;;;;5049685;28;20055;-91
2021/06/15 04:04:00;;;;;;;6.85;4.93;;;15.40;99.90;;;;;;5055359;28;20021;-90
2021/06/15 04:06:26;;;;;;;7.55;5.20;;;16.20;99.90;;;;;;5056053;28;20025;-90
2021/06/15 04:08:53;;;;;;;8.73;5.32;;;17.10;99.90;;;;;;5055764;28;20036;-92
2021/06/15 04:11:20;;;;;;;9.35;5.13;;;17.70;99.90;;;;;;5053350;28;20032;-89
2021/06/15 04:13:47;;;;;;;8.23;5.10;;;18.20;99.90;;;;;;5050399;28;20021;-92
2021/06/15 04:16:15;;;;;;;7.88;4.50;;;18.60;99.90;;;;;;5036680;28;20025;-92
2021/06/15 04:18:45;;;;;;;10.40;4.68;;;19.10;99.90;;;;;;5052217;28;20075;-91
2021/06/15 04:21:13;;;;;;;9.32;5.35;;;19.30;99.90;;;;;;5035761;28;20029;-93
2021/06/15 04:23:46;;;;;;;14.73;4.75;;;19.60;99.60;;;;;;5035980;28;20052;-91
2021/06/15 04:26:12;;;;;;;19.92;5.85;;;20.00;98.80;;;;;;5038368;28;20047;-91
2021/06/15 04:28:38;;;;;;;10.57;5.25;;;20.20;98.70;;;;;;5044762;28;20024;-92
2021/06/15 04:31:05;;;;;;;11.85;5.45;;;20.60;97.50;;;;;;5047185;28;20319;-90
2021/06/15 04:33:32;;;;;;;9.65;5.15;;;20.70;97.10;;;;;;5040557;28;20045;-93
2021/06/15 04:36:02;;;;;;;7.22;4.57;;;21.00;97.00;;;;;;5043817;28;20034;-90
2021/06/15 04:38:48;;;;;;;9.73;4.88;;;21.20;96.10;;;;;;5026773;28;20037;-92
2021/06/15 04:41:17;;;;;;;14.07;5.47;;;21.40;95.50;;;;;;5051430;28;20021;-92
2021/06/15 04:43:54;;;;;;;10.82;5.22;;;21.60;95.70;;;;;;5019304;28;20030;-91
2021/06/15 04:46:25;;;;;;;7.55;4.85;;;21.80;95.40;;;;;;5051724;28;20020;-92
2021/06/15 04:49:03;;;;;;;9.25;4.88;;;22.30;94.70;;;;;;5033544;28;20033;-92
2021/06/15 04:51:31;;;;;;;10.02;5.07;;;22.20;94.70;;;;;;5042888;28;20128;-90
2021/06/15 04:54:00;;;;;;;11.30;4.90;;;22.20;94.70;;;;;;5041628;28;20026;-91
2021/06/15 04:56:29;;;;;;;8.63;5.55;;;22.00;94.70;;;;;;5026596;28;20037;-90
2021/06/15 04:59:00;;;;;;;8.45;5.07;;;21.70;95.60;;;;;;5030137;28;20029;-90
2021/06/15 05:01:27;;;;;;;10.80;5.75;;;21.00;98.50;;;;;;5033298;28;20026;-91
2021/06/15 05:03:54;;;;;;;7.82;5.35;;;20.40;99.00;;;;;;5037522;28;20028;-91
2021/06/15 05:06:21;;;;;;;9.55;5.38;;;19.90;99.90;;;;;;5035017;28;20056;-89
2021/06/15 05:08:52;;;;;;;10.65;5.68;;;19.50;99.90;;;;;;5050631;28;20029;-92
2021/06/15 05:11:19;;;;;;;9.32;5.53;;;19.20;99.90;;;;;;5036225;28;20071;-92
2021/06/15 05:13:45;;;;;;;9.50;5.65;;;18.80;99.90;;;;;;5035710;28;20031;-90
2021/06/15 05:16:13;;;;;;;11.13;5.43;;;18.70;99.90;;;;;;5050626;28;20029;-88
2021/06/15 05:18:39;;;;;;;28.23;6.28;;;18.50;99.90;;;;;;5035476;28;20033;-90
2021/06/15 05:21:13;;;;;;;10.65;5.22;;;18.50;99.90;;;;;;5047434;28;20040;-90
2021/06/15 05:24:11;;;;;;;10.50;5.72;;;18.40;99.90;;;;;;5032798;28;20382;-90
2021/06/15 05:26:37;;;;;;;11.68;5.00;;;18.40;99.90;;;;;;5054358;28;20029;-91
2021/06/15 05:29:02;;;;;;;11.43;5.28;;;18.40;99.90;;;;;;5034262;28;20041;-91
2021/06/15 05:31:28;;;;;;;13.00;6.10;;;18.40;99.90;;;;;;5037677;28;20023;-91
2021/06/15 05:33:54;;;;;;;10.48;5.65;;;18.40;99.90;;;;;;5060430;28;20032;-90
2021/06/15 05:36:20;;;;;;;12.80;5.68;;;18.40;99.90;;;;;;5035276;28;20021;-89
2021/06/15 05:38:46;;;;;;;9.13;5.05;;;18.50;99.90;;;;;;5032428;28;20061;-92
2021/06/15 05:41:14;;;;;;;11.80;5.78;;;18.50;99.90;;;;;;5010003;28;20499;-90
2021/06/15 05:43:39;;;;;;;11.65;6.00;;;18.60;99.90;;;;;;5043756;28;20470;-91
2021/06/15 05:46:05;;;;;;;12.57;5.95;;;18.60;99.90;;;;;;5030987;28;20040;-89
2021/06/15 05:48:31;;;;;;;11.63;5.43;;;18.60;99.90;;;;;;5065624;28;20032;-90
2021/06/15 05:50:57;;;;;;;12.68;5.28;;;18.80;99.90;;;;;;5035545;28;20174;-91
2021/06/15 05:53:23;;;;;;;14.32;6.75;;;18.80;99.90;;;;;;5030884;28;20033;-90
2021/06/15 05:55:49;;;;;;;11.38;5.15;;;18.80;99.90;;;;;;5028755;28;20031;-91
2021/06/15 05:58:14;;;;;;;15.98;5.65;;;18.90;99.90;;;;;;5028046;28;20037;-91
2021/06/15 06:00:41;;;;;;;9.32;4.90;;;19.10;99.90;;;;;;5034541;28;20031;-92
2021/06/15 06:03:07;;;;;;;11.02;5.28;;;19.20;99.90;;;;;;5050281;28;20136;-91
2021/06/15 06:08:07;;;;;;;13.70;6.05;;;19.30;99.90;;;;;;5035899;28;20064;-93
2021/06/15 06:10:35;;;;;;;16.23;6.20;;;19.40;99.90;;;;;;5040032;28;20045;-91
2021/06/15 06:13:01;;;;;;;10.75;5.72;;;19.50;99.90;;;;;;5033334;28;20017;-91
2021/06/15 06:15:26;;;;;;;9.93;5.88;;;19.60;99.90;;;;;;5031889;28;20029;-91
2021/06/15 06:17:53;;;;;;;12.13;5.55;;;19.70;99.90;;;;;;5053449;28;20028;-91
2021/06/15 06:20:19;;;;;;;15.15;6.45;;;19.80;99.90;;;;;;5032542;28;20052;-89
2021/06/15 06:22:45;;;;;;;9.93;5.43;;;19.90;99.90;;;;;;5050494;28;20033;-91
2021/06/15 06:25:15;;;;;;;15.18;6.45;;;20.10;99.90;;;;;;5018101;28;20025;-90
2021/06/15 06:27:41;;;;;;;12.27;5.28;;;20.20;99.90;;;;;;5036349;28;20028;-91
2021/06/15 06:30:09;;;;;;;9.18;5.80;;;20.30;99.90;;;;;;5023165;28;20033;-91
2021/06/15 06:32:38;;;;;;;10.52;5.95;;;20.30;99.90;;;;;;5044992;28;20028;-90
2021/06/15 06:35:04;;;;;;;13.53;6.37;;;20.50;99.60;;;;;;5042762;28;20033;-90
2021/06/15 06:37:32;;;;;;;9.38;5.18;;;20.60;98.30;;;;;;5046881;28;20072;-91
2021/06/15 06:39:58;;;;;;;9.98;6.03;;;20.70;99.10;;;;;;5028961;28;20131;-89
2021/06/15 06:42:23;;;;;;;11.43;5.78;;;20.70;97.00;;;;;;5019882;28;20068;-92
2021/06/15 06:44:49;;;;;;;10.40;4.97;;;21.00;98.00;;;;;;5027089;28;20025;-91
2021/06/15 06:47:15;;;;;;;13.48;5.43;;;21.20;97.40;;;;;;5026305;28;20120;-92
2021/06/15 06:49:40;;;;;;;10.50;4.88;;;21.40;96.70;;;;;;5044095;28;20025;-91
2021/06/15 06:52:06;;;;;;;14.48;5.75;;;21.50;97.20;;;;;;5034347;28;20056;-90
2021/06/15 06:54:32;;;;;;;13.55;5.63;;;21.70;95.90;;;;;;5048876;28;20027;-91
2021/06/15 06:56:57;;;;;;;11.88;4.57;;;21.80;96.00;;;;;;5035170;28;20573;-90
2021/06/15 06:59:23;;;;;;;10.20;5.28;;;22.10;93.80;;;;;;5051148;28;20090;-91
2021/06/15 07:01:48;;;;;;;11.70;5.22;;;22.00;92.40;;;;;;5044793;28;20044;-89
2021/06/15 07:04:14;;;;;;;8.27;4.85;;;22.00;93.20;;;;;;5037954;28;20032;-92
2021/06/15 07:06:40;;;;;;;10.93;5.05;;;22.20;93.10;;;;;;5033569;28;20151;-91
2021/06/15 07:09:06;;;;;;;16.13;5.03;;;22.40;91.70;;;;;;5052348;28;20466;-92
2021/06/15 07:11:31;;;;;;;15.35;4.68;;;22.50;91.20;;;;;;5033318;28;20541;-93
2021/06/15 07:13:57;;;;;;;9.77;4.85;;;22.60;91.40;;;;;;5025846;28;20474;-91
2021/06/15 07:16:23;;;;;;;10.57;5.47;;;22.60;90.50;;;;;;5033413;28;20098;-89
2021/06/15 07:18:49;;;;;;;10.00;5.57;;;22.60;88.20;;;;;;5048539;28;20486;-93
2021/06/15 07:21:15;;;;;;;8.63;4.72;;;22.50;89.60;;;;;;5031193;28;20016;-91
2021/06/15 07:23:41;;;;;;;13.80;4.60;;;22.50;87.90;;;;;;5036125;28;20596;-91
2021/06/15 07:26:07;;;;;;;16.02;4.68;;;22.60;89.60;;;;;;5036119;28;20528;-88
2021/06/15 07:28:33;;;;;;;12.10;5.05;;;22.60;90.10;;;;;;5027302;28;20040;-92
2021/06/15 07:30:59;;;;;;;12.05;5.30;;;22.70;88.10;;;;;;5057505;28;20048;-90
2021/06/15 07:33:25;;;;;;;7.70;4.72;;;22.70;85.90;;;;;;5029816;28;20044;-89
2021/06/15 07:35:51;;;;;;;11.15;4.78;;;22.70;85.30;;;;;;5029709;28;20035;-88
2021/06/15 07:38:17;;;;;;;7.88;4.45;;;22.90;86.10;;;;;;5046539;28;20049;-89
2021/06/15 07:40:42;;;;;;;11.10;5.18;;;23.00;83.20;;;;;;5032256;28;20027;-91
2021/06/15 07:43:10;;;;;;;9.90;5.07;;;23.10;82.40;;;;;;5033464;28;20039;-92
2021/06/15 07:45:37;;;;;;;8.07;5.07;;;23.10;80.10;;;;;;5051623;28;20482;-92
2021/06/15 07:48:04;;;;;;;10.70;5.38;;;23.20;77.90;;;;;;5050294;28;20456;-89
2021/06/15 07:50:29;;;;;;;11.13;4.88;;;23.10;78.80;;;;;;5052504;28;20037;-90
2021/06/15 07:52:55;;;;;;;7.57;4.70;;;23.30;76.60;;;;;;5047356;28;20490;-89
2021/06/15 07:55:21;;;;;;;9.35;4.07;;;23.30;77.70;;;;;;5032452;28;20102;-90
2021/06/15 07:57:47;;;;;;;9.90;4.85;;;23.50;77.30;;;;;;5020065;28;20018;-91
2021/06/15 08:00:15;;;;;;;9.43;5.65;;;23.40;76.60;;;;;;5051514;28;20036;-91
2021/06/15 08:02:42;;;;;;;11.48;5.50;;;23.60;74.20;;;;;;5055603;28;20044;-92
2021/06/15 08:05:08;;;;;;;10.30;5.90;;;23.80;73.40;;;;;;5028197;28;20022;-92
2021/06/15 08:07:34;;;;;;;11.60;5.22;;;23.80;71.80;;;;;;5033535;28;20521;-91
2021/06/15 08:09:59;;;;;;;8.52;4.60;;;23.90;72.00;;;;;;5044760;28;20052;-93
2021/06/15 08:12:25;;;;;;;322.50;25.98;;;23.80;75.30;;;;;;5029348;28;20383;-93
2021/06/15 08:14:51;;;;;;;14.93;4.60;;;23.90;71.10;;;;;;5016418;28;20395;-92
2021/06/15 08:17:17;;;;;;;9.35;4.57;;;23.90;72.20;;;;;;5052263;28;20018;-91
2021/06/15 08:19:43;;;;;;;11.27;5.40;;;23.90;69.80;;;;;;5069623;28;20108;-90
2021/06/15 08:22:09;;;;;;;9.60;4.43;;;23.80;68.70;;;;;;5058217;28;20386;-89
2021/06/15 08:24:34;;;;;;;10.18;5.15;;;23.90;70.70;;;;;;5024849;28;20037;-92
2021/06/15 08:27:00;;;;;;;7.72;4.70;;;23.80;70.40;;;;;;5036213;28;20025;-91
2021/06/15 08:29:26;;;;;;;9.93;4.35;;;24.00;70.10;;;;;;5028131;28;20029;-93
2021/06/15 08:31:52;;;;;;;10.20;5.70;;;24.00;71.30;;;;;;5032704;28;20364;-93
2021/06/15 08:34:18;;;;;;;11.38;4.40;;;24.10;70.50;;;;;;5052709;28;20135;-92
2021/06/15 08:36:44;;;;;;;11.90;5.10;;;24.20;72.70;;;;;;5045005;28;20021;-92
2021/06/15 08:39:10;;;;;;;11.13;5.35;;;24.30;71.40;;;;;;5034195;28;20033;-89
2021/06/15 08:41:36;;;;;;;10.93;5.30;;;24.30;68.90;;;;;;5049779;28;20367;-94
2021/06/15 08:44:04;;;;;;;12.07;5.13;;;24.50;69.40;;;;;;5037226;28;20021;-91
2021/06/15 08:46:31;;;;;;;9.05;5.20;;;24.60;68.50;;;;;;5035306;28;20037;-92
2021/06/15 08:49:00;;;;;;;9.00;5.93;;;24.60;69.60;;;;;;5054322;28;20045;-91
2021/06/15 08:51:26;;;;;;;11.77;5.32;;;24.40;65.00;;;;;;5035621;28;20025;-91
2021/06/15 08:53:53;;;;;;;9.82;5.07;;;24.20;66.80;;;;;;5036351;28;20363;-93
2021/06/15 08:56:19;;;;;;;10.65;5.25;;;24.10;68.10;;;;;;5036931;28;20024;-93
2021/06/15 08:58:58;;;;;;;15.48;5.10;;;23.90;69.40;;;;;;5038750;28;20021;-92
2021/06/15 09:01:24;;;;;;;12.82;5.55;;;23.80;69.20;;;;;;5055011;28;20029;-93
2021/06/15 09:03:52;;;;;;;10.07;5.60;;;23.70;67.90;;;;;;5034705;28;20102;-91
2021/06/15 09:06:18;;;;;;;12.55;5.45;;;23.80;68.00;;;;;;5051716;28;20056;-92
2021/06/15 09:08:58;;;;;;;11.68;5.57;;;23.90;68.60;;;;;;5038182;28;20060;-91
2021/06/15 09:11:24;;;;;;;11.95;5.57;;;24.00;69.00;;;;;;5034123;28;20037;-91
2021/06/15 09:13:51;;;;;;;8.25;4.85;;;24.10;66.90;;;;;;5036245;28;20032;-91
2021/06/15 09:16:18;;;;;;;8.82;5.40;;;24.20;65.40;;;;;;5035949;28;20029;-94
2021/06/15 09:18:44;;;;;;;10.43;4.95;;;24.30;66.50;;;;;;5051288;28;20029;-93
2021/06/15 09:21:10;;;;;;;13.27;5.43;;;24.50;69.90;;;;;;5027839;28;20110;-93
2021/06/15 09:23:38;;;;;;;10.07;5.65;;;24.60;69.20;;;;;;5054754;28;20526;-91
2021/06/15 09:26:05;;;;;;;15.63;5.53;;;24.50;64.70;;;;;;5048704;28;20387;-92
2021/06/15 09:28:31;;;;;;;12.32;6.25;;;24.60;65.70;;;;;;5033832;28;20025;-93
2021/06/15 09:31:08;;;;;;;10.02;5.85;;;24.40;65.00;;;;;;5035353;28;20152;-89
2021/06/15 09:33:48;;;;;;;9.88;5.22;;;24.20;62.90;;;;;;5060042;28;20025;-94
2021/06/15 09:36:13;;;;;;;10.98;4.15;;;24.10;67.30;;;;;;5054660;28;20025;-90
2021/06/15 09:38:56;;;;;;;13.00;5.00;;;23.90;66.90;;;;;;5036258;28;20102;-90
2021/06/15 09:41:40;;;;;;;8.85;5.47;;;24.10;68.90;;;;;;5034072;28;20115;-90
2021/06/15 09:44:13;;;;;;;11.23;5.18;;;24.20;65.90;;;;;;5050127;28;20076;-92
2021/06/15 09:47:04;;;;;;;9.57;5.30;;;24.20;64.50;;;;;;5053979;28;20056;-90
2021/06/15 09:49:30;;;;;;;13.63;4.90;;;24.30;64.80;;;;;;5026750;28;20041;-92
2021/06/15 09:52:19;;;;;;;10.05;5.53;;;24.50;65.60;;;;;;5053667;28;20112;-91
2021/06/15 09:54:57;;;;;;;8.43;4.50;;;24.70;63.90;;;;;;5052804;28;20020;-92
2021/06/15 09:57:29;;;;;;;11.32;4.22;;;25.00;66.20;;;;;;5049632;28;20029;-90
2021/06/15 10:00:14;;;;;;;8.60;5.00;;;25.00;65.60;;;;;;5032624;28;20461;-91
2021/06/15 10:02:57;;;;;;;10.63;5.40;;;25.00;63.00;;;;;;5032399;28;20020;-89
2021/06/15 10:05:36;;;;;;;10.95;5.25;;;25.00;64.80;;;;;;5036102;28;20033;-91
2021/06/15 10:08:06;;;;;;;9.63;4.22;;;24.70;63.80;;;;;;5050272;28;20021;-90
2021/06/15 10:10:41;;;;;;;9.07;4.70;;;24.50;60.70;;;;;;5047969;28;20148;-92
2021/06/15 10:13:08;;;;;;;11.15;4.60;;;24.50;62.30;;;;;;5031982;28;20033;-93
2021/06/15 10:15:38;;;;;;;8.77;4.78;;;24.30;62.50;;;;;;5031926;28;20032;-92
2021/06/15 10:18:04;;;;;;;9.23;5.55;;;24.30;61.20;;;;;;5049154;28;20030;-92
2021/06/15 10:20:33;;;;;;;9.13;4.75;;;24.30;62.20;;;;;;5034582;28;20033;-92
2021/06/15 10:23:00;;;;;;;8.63;5.15;;;24.20;64.00;;;;;;5045428;28;20510;-93
2021/06/15 10:25:29;;;;;;;7.85;5.00;;;24.20;61.10;;;;;;5031482;28;20398;-89
2021/06/15 10:27:56;;;;;;;6.93;4.25;;;24.30;59.60;;;;;;5035158;28;20009;-90
2021/06/15 10:30:34;;;;;;;9.25;4.85;;;24.40;61.40;;;;;;5048210;28;20042;-93
2021/06/15 10:33:04;;;;;;;9.73;4.10;;;24.40;61.30;;;;;;5033783;28;20047;-92
2021/06/15 10:35:35;;;;;;;8.57;4.50;;;24.40;62.80;;;;;;5053729;28;20035;-92
2021/06/15 10:38:01;;;;;;;9.88;5.20;;;24.40;62.10;;;;;;5052160;28;20052;-93
2021/06/15 10:40:27;;;;;;;8.73;4.47;;;24.50;62.80;;;;;;5036853;28;20064;-90
2021/06/15 10:43:18;;;;;;;6.63;4.43;;;24.50;61.50;;;;;;5036611;28;20086;-93
2021/06/15 10:45:47;;;;;;;6.25;4.13;;;24.60;61.10;;;;;;5048018;28;20021;-89
2021/06/15 10:48:15;;;;;;;8.27;4.35;;;24.80;62.20;;;;;;5051102;28;20049;-90
2021/06/15 10:50:51;;;;;;;6.45;4.50;;;24.60;62.60;;;;;;5068276;28;20041;-88
2021/06/15 10:53:20;;;;;;;8.05;4.60;;;24.70;61.80;;;;;;5061719;28;20078;-89
2021/06/15 10:56:10;;;;;;;10.25;4.63;;;24.80;60.40;;;;;;5048802;28;20037;-92
2021/06/15 10:58:36;;;;;;;12.32;4.63;;;24.70;61.60;;;;;;5030192;28;20561;-92
2021/06/15 11:01:15;;;;;;;6.53;4.03;;;24.80;62.40;;;;;;5049335;28;20117;-90
2021/06/15 11:03:51;;;;;;;7.45;4.50;;;24.90;60.00;;;;;;5048264;28;20352;-93
2021/06/15 11:06:19;;;;;;;8.35;4.45;;;25.00;63.30;;;;;;5034020;28;20021;-90
2021/06/15 11:08:45;;;;;;;7.85;4.78;;;25.00;61.50;;;;;;5028758;28;20025;-90
2021/06/15 11:11:20;;;;;;;7.65;4.18;;;25.10;60.50;;;;;;5050987;28;20442;-88
2021/06/15 11:13:54;;;;;;;6.53;4.07;;;25.00;62.60;;;;;;5033895;28;20064;-90
2021/06/15 11:16:23;;;;;;;12.27;4.70;;;24.90;60.70;;;;;;5032617;28;20037;-91
2021/06/15 11:19:12;;;;;;;8.48;3.90;;;24.70;60.90;;;;;;5032123;28;20037;-90
2021/06/15 11:21:58;;;;;;;17.17;4.45;;;24.50;63.00;;;;;;5026365;28;20406;-91
2021/06/15 11:24:46;;;;;;;10.68;4.22;;;24.60;61.60;;;;;;5049735;28;20552;-92
2021/06/15 11:27:24;;;;;;;6.78;4.13;;;24.80;63.70;;;;;;5048878;28;20044;-90
2021/06/15 11:29:54;;;;;;;7.28;4.13;;;24.90;62.70;;;;;;5049044;28;20042;-91
2021/06/15 11:32:30;;;;;;;7.82;4.30;;;25.10;62.50;;;;;;5033227;28;20098;-92
2021/06/15 11:34:56;;;;;;;17.80;5.05;;;25.00;62.60;;;;;;5051065;28;20017;-92
2021/06/15 11:37:28;;;;;;;6.53;4.00;;;24.90;59.90;;;;;;5046422;28;20098;-90
2021/06/15 11:40:15;;;;;;;6.68;3.50;;;25.00;58.60;;;;;;5032120;28;20112;-90
2021/06/15 11:42:41;;;;;;;8.02;4.22;;;25.00;58.40;;;;;;5050134;28;20065;-92
2021/06/15 11:45:11;;;;;;;8.23;3.63;;;25.00;57.00;;;;;;5044616;28;20029;-91
2021/06/15 11:47:37;;;;;;;;;;;24.90;56.00;;;;;;5049233;28;20470;-92
2021/06/15 11:50:07;;;;;;;7.93;3.17;;;25.10;57.30;;;;;;5032748;28;19960;-92
2021/06/15 11:52:35;;;;;;;5.88;3.55;;;25.50;58.60;;;;;;5030558;28;20474;-91
2021/06/15 11:55:01;;;;;;;7.55;3.67;;;25.30;58.40;;;;;;5042668;28;20033;-91
2021/06/15 11:57:27;;;;;;;8.45;4.13;;;25.40;59.40;;;;;;5048572;28;20029;-89
2021/06/15 11:59:54;;;;;;;8.55;3.80;;;25.60;58.70;;;;;;5045534;28;20033;-90
2021/06/15 12:02:20;;;;;;;8.45;4.47;;;25.60;59.70;;;;;;5035490;28;20017;-92
2021/06/15 12:05:06;;;;;;;7.30;3.70;;;25.70;59.50;;;;;;5042007;28;20033;-89
2021/06/15 12:07:32;;;;;;;6.53;3.53;;;25.90;58.30;;;;;;5054514;28;20037;-88
2021/06/15 12:10:10;;;;;;;7.90;4.72;;;25.80;57.40;;;;;;5033954;28;20060;-91
2021/06/15 12:13:00;;;;;;;6.35;4.03;;;25.60;57.70;;;;;;5033844;28;20031;-92
2021/06/15 12:15:37;;;;;;;8.07;4.65;;;25.60;59.30;;;;;;5035325;28;20052;-89
2021/06/15 12:18:31;;;;;;;14.70;4.53;;;25.50;57.50;;;;;;5033361;28;20060;-92
2021/06/15 12:21:09;;;;;;;6.75;4.07;;;25.50;57.10;;;;;;5029592;28;20029;-91
2021/06/15 12:23:50;;;;;;;8.65;3.75;;;25.60;58.70;;;;;;5027437;28;20059;-91
2021/06/15 12:26:32;;;;;;;8.05;4.28;;;25.70;62.30;;;;;;5050682;28;20053;-92
2021/06/15 12:29:06;;;;;;;8.20;3.83;;;25.90;60.70;;;;;;5050385;28;20016;-90
2021/06/15 12:31:36;;;;;;;7.05;4.22;;;26.20;57.40;;;;;;5054368;28;20395;-90
2021/06/15 12:34:10;;;;;;;5.88;3.67;;;26.30;59.90;;;;;;5035460;28;20375;-91
2021/06/15 12:36:45;;;;;;;13.93;3.95;;;26.20;54.90;;;;;;5035364;28;20389;-89
2021/06/15 12:39:18;;;;;;;8.32;3.72;;;26.00;54.60;;;;;;5019961;28;20059;-91
2021/06/15 12:42:01;;;;;;;5.68;3.58;;;26.10;59.60;;;;;;5036794;28;20055;-92
2021/06/15 12:44:30;;;;;;;7.57;4.32;;;26.00;57.00;;;;;;5051934;28;20029;-92
2021/06/15 12:47:04;;;;;;;5.07;3.83;;;26.00;57.00;;;;;;5035987;28;20021;-92
2021/06/15 12:49:30;;;;;;;7.65;4.47;;;25.90;56.20;;;;;;5054306;28;20021;-94
2021/06/15 12:52:01;;;;;;;8.93;3.92;;;26.00;57.60;;;;;;5038197;28;20033;-93
2021/06/15 12:54:31;;;;;;;7.53;4.15;;;26.20;58.80;;;;;;5034994;28;20107;-92
2021/06/15 12:57:05;;;;;;;9.13;3.80;;;26.20;59.50;;;;;;5035554;28;20040;-92
2021/06/15 12:59:32;;;;;;;7.97;3.70;;;26.20;59.70;;;;;;5034196;28;20075;-92